Time;durP1;ratioP1;P1;durP2;ratioP2;P2;SDS_P1;SDS_P2;PMS_P1;PMS_P2;Temp;Humidity;BMP_temperature;BMP_pressure;BME280_temperature;BME280_humidity;BME280_pressure;Samples;Min_cycle;Max_cycle;Signal;HPM_P1;HPM_P2
2023/03/29 00:02:10;;;;;;;3.80;3.20;;;9.60;99.90;;;;;;4995552;28;20445;-83
2023/03/29 00:04:37;;;;;;;4.83;2.97;;;9.60;99.90;;;;;;4995285;28;20757;-82
2023/03/29 00:07:03;;;;;;;3.80;2.57;;;9.60;99.90;;;;;;4996273;28;20437;-82
2023/03/29 00:09:31;;;;;;;4.10;3.27;;;9.60;99.90;;;;;;4996364;28;20462;-83
2023/03/29 00:11:58;;;;;;;4.90;3.10;;;9.60;99.90;;;;;;4995803;28;20544;-82
2023/03/29 00:14:25;;;;;;;3.53;2.83;;;9.60;99.90;;;;;;4995506;28;20460;-83
2023/03/29 00:16:51;;;;;;;4.03;3.10;;;9.60;99.90;;;;;;5011734;28;20464;-82
2023/03/29 00:19:19;;;;;;;4.00;3.20;;;9.60;99.90;;;;;;4995261;28;20509;-82
2023/03/29 00:21:47;;;;;;;5.30;3.33;;;9.60;99.90;;;;;;4995061;28;20437;-82
2023/03/29 00:24:19;;;;;;;3.10;2.53;;;9.60;99.90;;;;;;4995210;28;20927;-82
2023/03/29 00:26:47;;;;;;;4.20;3.00;;;9.60;99.90;;;;;;4978991;28;20878;-82
2023/03/29 00:29:13;;;;;;;5.60;3.30;;;9.60;99.90;;;;;;4978912;28;20556;-82
2023/03/29 00:31:39;;;;;;;3.20;2.70;;;9.60;99.90;;;;;;4995797;28;20442;-82
2023/03/29 00:34:08;;;;;;;4.37;3.27;;;9.60;99.90;;;;;;4978885;28;20249;-83
2023/03/29 00:36:33;;;;;;;3.10;2.57;;;9.60;99.90;;;;;;4979057;28;20483;-82
2023/03/29 00:39:02;;;;;;;5.03;3.40;;;9.60;99.90;;;;;;4976497;28;20431;-81
2023/03/29 00:41:30;;;;;;;4.50;2.90;;;9.60;99.90;;;;;;4994511;28;20449;-83
2023/03/29 00:44:02;;;;;;;4.30;3.37;;;9.50;99.90;;;;;;4993168;28;20436;-81
2023/03/29 00:46:30;;;;;;;6.10;3.40;;;9.50;99.90;;;;;;4978927;28;20466;-84
2023/03/29 00:49:04;;;;;;;3.60;2.73;;;9.50;99.90;;;;;;4995494;28;20476;-82
2023/03/29 00:51:33;;;;;;;5.30;2.90;;;9.50;99.90;;;;;;4994939;28;20456;-83
2023/03/29 00:54:02;;;;;;;3.70;2.83;;;9.50;99.90;;;;;;4994420;28;20473;-82
2023/03/29 00:56:35;;;;;;;5.90;2.80;;;9.50;99.90;;;;;;5011043;28;20429;-82
2023/03/29 00:59:12;;;;;;;5.93;2.80;;;9.60;99.90;;;;;;4978625;28;20425;-82
2023/03/29 01:01:41;;;;;;;3.87;2.93;;;9.50;99.90;;;;;;5010790;28;20457;-83
2023/03/29 01:04:19;;;;;;;4.30;2.97;;;9.50;99.90;;;;;;4994740;28;20827;-82
2023/03/29 01:07:01;;;;;;;8.70;3.03;;;9.50;99.90;;;;;;4994385;28;20460;-82
2023/03/29 01:09:32;;;;;;;4.60;2.67;;;9.50;99.90;;;;;;4994168;28;20991;-82
2023/03/29 01:12:07;;;;;;;4.40;2.60;;;9.50;99.90;;;;;;4994158;28;20472;-82
2023/03/29 01:14:41;;;;;;;6.30;3.03;;;9.50;99.90;;;;;;4994554;28;20416;-82
2023/03/29 01:17:14;;;;;;;3.80;2.70;;;9.50;99.90;;;;;;4978327;28;20445;-82
2023/03/29 01:19:56;;;;;;;3.67;2.73;;;9.50;99.90;;;;;;4995527;28;20553;-82
2023/03/29 01:22:32;;;;;;;4.83;2.70;;;9.50;99.90;;;;;;4977807;28;20459;-82
2023/03/29 01:25:04;;;;;;;5.27;3.40;;;9.50;99.90;;;;;;4994442;28;20543;-82
2023/03/29 01:27:46;;;;;;;4.00;2.80;;;9.50;99.90;;;;;;4994072;28;20429;-82
2023/03/29 01:30:17;;;;;;;3.10;2.60;;;9.40;99.90;;;;;;4994864;28;20467;-82
2023/03/29 01:32:57;;;;;;;3.63;2.67;;;9.40;99.90;;;;;;4994532;28;21915;-82
2023/03/29 01:35:35;;;;;;;2.77;2.47;;;9.50;99.90;;;;;;4994178;28;20765;-83
2023/03/29 01:38:22;;;;;;;6.50;2.50;;;9.40;99.90;;;;;;4994168;28;20456;-82
2023/03/29 01:40:51;;;;;;;5.60;2.80;;;9.40;99.90;;;;;;4995054;28;20493;-82
2023/03/29 01:43:30;;;;;;;2.97;2.53;;;9.40;99.90;;;;;;5009960;28;20421;-82
2023/03/29 01:46:05;;;;;;;2.73;2.47;;;9.40;99.90;;;;;;4994264;28;20440;-82
2023/03/29 01:48:55;;;;;;;4.43;3.37;;;9.40;99.90;;;;;;4993765;28;20449;-82
2023/03/29 01:51:36;;;;;;;5.30;3.90;;;9.40;99.90;;;;;;5010217;28;20487;-81
2023/03/29 01:54:29;;;;;;;4.63;2.97;;;9.40;99.90;;;;;;4974844;28;20742;-82
2023/03/29 01:56:57;;;;;;;2.80;2.60;;;9.40;99.90;;;;;;4983767;28;20445;-82
2023/03/29 01:59:31;;;;;;;5.30;3.00;;;9.40;99.90;;;;;;4994094;28;20425;-80
2023/03/29 02:02:05;;;;;;;4.40;2.70;;;9.40;99.90;;;;;;5009450;28;20466;-82
2023/03/29 02:04:40;;;;;;;3.10;2.53;;;9.40;99.90;;;;;;4994282;28;20402;-82
2023/03/29 02:07:08;;;;;;;2.50;2.30;;;9.40;99.90;;;;;;4993742;28;20937;-82
2023/03/29 02:09:38;;;;;;;5.03;3.30;;;9.40;99.90;;;;;;4994608;28;20465;-83
2023/03/29 02:12:07;;;;;;;3.77;3.10;;;9.30;99.90;;;;;;4994564;28;20442;-82
2023/03/29 02:14:35;;;;;;;3.57;2.73;;;9.30;99.90;;;;;;4993757;28;20453;-82
2023/03/29 02:17:21;;;;;;;3.40;2.80;;;9.40;99.90;;;;;;4993564;28;20429;-82
2023/03/29 02:19:52;;;;;;;3.00;2.70;;;9.40;99.90;;;;;;4996404;28;20481;-82
2023/03/29 02:22:30;;;;;;;3.43;3.00;;;9.40;99.90;;;;;;4993903;28;20449;-83
2023/03/29 02:25:03;;;;;;;2.90;2.53;;;9.40;99.90;;;;;;4993830;28;20401;-82
2023/03/29 02:27:32;;;;;;;4.37;2.40;;;9.40;99.90;;;;;;4980278;28;20867;-82
2023/03/29 02:29:58;;;;;;;4.33;3.30;;;9.40;99.90;;;;;;5003185;28;20519;-81
2023/03/29 02:32:32;;;;;;;3.67;2.87;;;9.40;99.90;;;;;;4993619;28;20450;-82
2023/03/29 02:35:12;;;;;;;4.87;3.13;;;9.40;99.90;;;;;;5003277;28;20441;-81
2023/03/29 02:37:46;;;;;;;3.33;3.03;;;9.40;99.90;;;;;;4997128;28;20432;-82
2023/03/29 02:40:14;;;;;;;4.63;2.90;;;9.40;99.90;;;;;;4997219;28;20477;-82
2023/03/29 02:42:43;;;;;;;3.70;2.47;;;9.40;99.90;;;;;;4996547;28;20437;-82
2023/03/29 02:45:13;;;;;;;4.30;2.80;;;9.30;99.90;;;;;;5013356;28;20449;-82
2023/03/29 02:47:47;;;;;;;3.33;2.70;;;9.40;99.90;;;;;;4997294;28;20441;-82
2023/03/29 02:50:16;;;;;;;4.03;2.50;;;9.40;99.90;;;;;;4996949;28;20492;-83
2023/03/29 02:52:53;;;;;;;4.83;2.50;;;9.40;99.90;;;;;;4980337;28;20555;-82
2023/03/29 02:55:30;;;;;;;3.43;2.70;;;9.40;99.90;;;;;;4978825;28;20453;-82
2023/03/29 02:57:56;;;;;;;4.50;2.70;;;9.40;99.90;;;;;;4979938;28;20455;-82
2023/03/29 03:00:22;;;;;;;3.10;2.80;;;9.40;99.90;;;;;;4996816;28;20421;-82
2023/03/29 03:02:51;;;;;;;6.43;3.10;;;9.40;99.90;;;;;;4980425;28;20452;-82
2023/03/29 03:05:22;;;;;;;5.23;2.97;;;9.40;99.90;;;;;;4996617;28;20433;-81
2023/03/29 03:07:51;;;;;;;3.10;2.70;;;9.40;99.90;;;;;;4997438;28;20437;-83
2023/03/29 03:10:18;;;;;;;3.40;2.70;;;9.30;99.90;;;;;;4996227;28;20480;-80
2023/03/29 03:12:46;;;;;;;4.73;2.93;;;9.40;99.90;;;;;;4996857;28;20419;-82
2023/03/29 03:15:12;;;;;;;3.30;3.00;;;9.40;99.90;;;;;;4996266;28;20430;-82
2023/03/29 03:17:39;;;;;;;3.50;2.50;;;9.40;99.90;;;;;;4980154;28;20546;-82
2023/03/29 03:20:16;;;;;;;4.00;2.97;;;9.30;99.90;;;;;;4996595;28;20429;-83
2023/03/29 03:22:47;;;;;;;5.87;3.17;;;9.30;99.90;;;;;;5005315;28;20461;-82
2023/03/29 03:25:19;;;;;;;3.70;2.70;;;9.30;99.90;;;;;;5012912;28;20887;-82
2023/03/29 03:27:49;;;;;;;4.00;2.57;;;9.30;99.90;;;;;;5011972;28;20478;-82
2023/03/29 03:30:17;;;;;;;3.63;2.60;;;9.30;99.90;;;;;;4996648;28;20849;-81
2023/03/29 03:33:08;;;;;;;6.97;3.30;;;9.30;99.90;;;;;;4977995;28;20927;-82
2023/03/29 03:36:01;;;;;;;3.70;2.63;;;9.30;99.90;;;;;;4977533;28;20439;-82
2023/03/29 03:38:29;;;;;;;3.43;3.00;;;9.30;99.90;;;;;;4991751;28;20399;-82
2023/03/29 03:41:00;;;;;;;3.00;2.67;;;9.30;99.90;;;;;;4990184;28;20532;-83
2023/03/29 03:43:31;;;;;;;3.00;2.63;;;9.30;99.90;;;;;;4980024;28;20454;-83
2023/03/29 03:45:57;;;;;;;3.83;2.97;;;9.30;99.90;;;;;;4979656;28;20430;-82
2023/03/29 03:48:27;;;;;;;4.90;3.03;;;9.30;99.90;;;;;;4995873;28;20409;-82
2023/03/29 03:51:04;;;;;;;3.80;2.90;;;9.30;99.90;;;;;;4979326;28;20472;-83
2023/03/29 03:53:32;;;;;;;4.50;2.40;;;9.30;99.90;;;;;;4979997;28;20839;-82
2023/03/29 03:56:30;;;;;;;5.30;3.30;;;9.30;99.90;;;;;;4989999;28;20508;-82
2023/03/29 03:59:14;;;;;;;5.27;2.87;;;9.30;99.90;;;;;;4995113;28;20859;-82
2023/03/29 04:02:09;;;;;;;4.87;2.63;;;9.30;99.90;;;;;;4995830;28;20827;-82
2023/03/29 04:04:36;;;;;;;3.13;2.83;;;9.30;99.90;;;;;;4995635;28;20514;-82
2023/03/29 04:07:07;;;;;;;3.07;2.70;;;9.30;99.90;;;;;;4995347;28;20449;-82
2023/03/29 04:09:38;;;;;;;4.60;3.23;;;9.30;99.90;;;;;;4996331;28;20763;-82
2023/03/29 04:12:17;;;;;;;4.13;3.00;;;9.30;99.90;;;;;;4980758;28;20425;-83
2023/03/29 04:14:43;;;;;;;4.73;2.80;;;9.30;99.90;;;;;;4979636;28;20525;-82
2023/03/29 04:17:15;;;;;;;4.00;2.87;;;9.30;99.90;;;;;;4995311;28;20441;-81
2023/03/29 04:19:47;;;;;;;2.93;2.63;;;9.30;99.90;;;;;;4978845;28;20520;-82
2023/03/29 04:22:13;;;;;;;3.17;2.63;;;9.30;99.90;;;;;;4979210;28;21010;-82
2023/03/29 04:24:39;;;;;;;3.50;3.20;;;9.30;99.90;;;;;;4975615;28;20803;-82
2023/03/29 04:27:31;;;;;;;4.37;2.70;;;9.30;99.90;;;;;;4975131;28;20446;-82
2023/03/29 04:30:01;;;;;;;4.53;2.40;;;9.30;99.90;;;;;;4989540;28;20555;-82
2023/03/29 04:32:52;;;;;;;3.23;2.67;;;9.30;99.90;;;;;;4995023;28;20447;-82
2023/03/29 04:35:21;;;;;;;3.67;2.70;;;9.30;99.90;;;;;;4991444;28;20422;-83
2023/03/29 04:37:49;;;;;;;2.90;2.50;;;9.30;99.90;;;;;;5004901;28;20417;-82
2023/03/29 04:40:21;;;;;;;5.17;3.40;;;9.30;99.90;;;;;;4995245;28;20453;-83
2023/03/29 04:43:03;;;;;;;5.03;2.60;;;9.30;99.90;;;;;;4995160;28;20856;-82
2023/03/29 04:45:30;;;;;;;3.50;2.67;;;9.30;99.90;;;;;;4978831;28;20442;-82
2023/03/29 04:48:13;;;;;;;4.37;3.00;;;9.30;99.90;;;;;;5010669;28;20856;-82
2023/03/29 04:50:46;;;;;;;4.50;2.97;;;9.30;99.90;;;;;;4994596;28;20845;-82
2023/03/29 04:53:13;;;;;;;4.20;3.10;;;9.20;99.90;;;;;;4994919;28;20755;-82
2023/03/29 04:55:42;;;;;;;3.37;2.67;;;9.30;99.90;;;;;;4975370;28;20446;-82
2023/03/29 04:58:13;;;;;;;4.50;2.90;;;9.30;99.90;;;;;;4993381;28;20461;-82
2023/03/29 05:00:42;;;;;;;3.27;2.97;;;9.20;99.90;;;;;;4994345;28;20786;-81
2023/03/29 05:03:28;;;;;;;4.80;3.57;;;9.20;99.90;;;;;;5011115;28;20401;-82
2023/03/29 05:06:07;;;;;;;3.73;3.20;;;9.20;99.90;;;;;;5010580;28;20491;-83
2023/03/29 05:08:38;;;;;;;3.93;2.97;;;9.30;99.90;;;;;;4982989;28;20434;-82
2023/03/29 05:11:25;;;;;;;4.53;2.93;;;9.20;99.90;;;;;;4994315;28;20421;-83
2023/03/29 05:13:59;;;;;;;4.03;3.13;;;9.20;99.90;;;;;;4991026;28;20418;-83
2023/03/29 05:16:28;;;;;;;4.17;3.33;;;9.20;99.90;;;;;;4977238;28;20759;-82
2023/03/29 05:18:59;;;;;;;4.43;3.00;;;9.20;99.90;;;;;;4994608;28;20453;-82
2023/03/29 05:21:27;;;;;;;5.43;3.53;;;9.20;99.90;;;;;;4977970;28;20977;-82
2023/03/29 05:23:55;;;;;;;4.60;3.23;;;9.20;99.90;;;;;;4974869;28;20410;-82
2023/03/29 05:26:26;;;;;;;4.93;3.53;;;9.20;99.90;;;;;;4975172;28;20856;-82
2023/03/29 05:28:56;;;;;;;5.53;3.43;;;9.20;99.90;;;;;;4994307;28;20456;-82
2023/03/29 05:31:24;;;;;;;3.77;3.13;;;9.20;99.90;;;;;;4994463;28;20440;-83
2023/03/29 05:33:55;;;;;;;4.63;3.33;;;9.20;99.90;;;;;;4978069;28;20771;-83
2023/03/29 05:36:24;;;;;;;4.40;3.30;;;9.20;99.90;;;;;;4977971;28;20429;-83
2023/03/29 05:38:56;;;;;;;5.93;3.20;;;9.20;99.90;;;;;;4978225;28;20777;-83
2023/03/29 05:41:25;;;;;;;5.00;3.20;;;9.20;99.90;;;;;;4977248;28;20479;-83
2023/03/29 05:44:10;;;;;;;4.40;3.40;;;9.20;99.90;;;;;;4994691;28;20547;-82
2023/03/29 05:46:42;;;;;;;4.97;4.30;;;9.20;99.90;;;;;;4975704;28;20496;-82
2023/03/29 05:49:13;;;;;;;8.53;3.57;;;9.20;99.90;;;;;;4977649;28;21017;-83
2023/03/29 05:51:55;;;;;;;3.93;3.53;;;9.20;99.90;;;;;;4993772;28;20433;-82
2023/03/29 05:54:24;;;;;;;4.50;3.27;;;9.20;99.90;;;;;;4993990;28;20441;-82
2023/03/29 05:56:56;;;;;;;5.10;3.33;;;9.20;99.90;;;;;;4993827;28;20446;-86
2023/03/29 05:59:28;;;;;;;4.40;3.37;;;9.20;99.90;;;;;;5010087;28;21081;-85
2023/03/29 06:01:56;;;;;;;4.93;2.87;;;9.20;99.90;;;;;;4996010;28;20451;-84
2023/03/29 06:04:25;;;;;;;3.40;2.70;;;9.20;99.90;;;;;;4981937;28;20459;-85
2023/03/29 06:07:22;;;;;;;3.73;3.10;;;9.20;99.90;;;;;;4993291;28;20475;-84
2023/03/29 06:10:09;;;;;;;5.60;3.70;;;9.20;99.90;;;;;;4987730;28;20810;-82
2023/03/29 06:12:38;;;;;;;6.13;3.47;;;9.20;99.90;;;;;;4981223;28;20429;-83
2023/03/29 06:15:05;;;;;;;3.23;2.80;;;9.20;99.90;;;;;;5014137;28;20754;-82
2023/03/29 06:17:39;;;;;;;4.37;3.10;;;9.20;99.90;;;;;;4997253;28;20456;-82
2023/03/29 06:20:09;;;;;;;4.13;2.93;;;9.20;99.90;;;;;;4997448;28;20440;-83
2023/03/29 06:22:40;;;;;;;4.67;3.70;;;9.20;99.90;;;;;;4997172;28;20465;-83
2023/03/29 06:25:14;;;;;;;6.27;3.50;;;9.20;99.90;;;;;;5014294;28;20437;-85
2023/03/29 06:27:45;;;;;;;6.17;3.10;;;9.20;99.90;;;;;;4981885;28;20431;-85
2023/03/29 06:30:15;;;;;;;6.53;3.47;;;9.20;99.90;;;;;;4996930;28;20464;-85
2023/03/29 06:32:45;;;;;;;4.03;3.43;;;9.20;99.90;;;;;;4981252;28;20478;-84
2023/03/29 06:35:24;;;;;;;4.30;3.13;;;9.20;99.90;;;;;;5013659;28;20433;-83
2023/03/29 06:38:00;;;;;;;5.87;3.67;;;9.20;99.90;;;;;;4997357;28;20401;-82
2023/03/29 06:41:04;;;;;;;6.30;3.57;;;9.20;99.90;;;;;;4996003;28;20434;-84
2023/03/29 06:43:50;;;;;;;5.40;3.37;;;9.20;99.90;;;;;;4980999;28;20989;-84
2023/03/29 06:46:16;;;;;;;4.20;3.30;;;9.20;99.90;;;;;;4997390;28;20433;-86
2023/03/29 06:49:07;;;;;;;4.93;3.60;;;9.20;99.90;;;;;;4997580;28;20218;-85
2023/03/29 06:51:42;;;;;;;4.63;3.43;;;9.20;99.90;;;;;;5013469;28;20536;-85
2023/03/29 06:54:08;;;;;;;6.83;3.57;;;9.20;99.90;;;;;;4996416;28;20850;-86
2023/03/29 06:56:36;;;;;;;5.20;3.10;;;9.20;99.90;;;;;;4997367;28;20866;-85
2023/03/29 06:59:09;;;;;;;4.90;3.57;;;9.20;99.90;;;;;;4979894;28;20464;-86
2023/03/29 07:01:46;;;;;;;4.10;3.20;;;9.20;99.90;;;;;;4980723;28;20535;-85
2023/03/29 07:04:19;;;;;;;4.73;3.70;;;9.20;99.90;;;;;;4980425;28;20441;-86
2023/03/29 07:07:06;;;;;;;5.00;3.53;;;9.20;99.90;;;;;;5010763;28;20495;-87
2023/03/29 07:09:34;;;;;;;3.73;3.30;;;9.20;99.90;;;;;;4980756;28;20464;-86
2023/03/29 07:12:23;;;;;;;7.30;3.10;;;9.20;99.90;;;;;;4994372;28;20428;-85
2023/03/29 07:14:55;;;;;;;4.63;3.53;;;9.20;99.90;;;;;;4996765;28;20453;-85
2023/03/29 07:17:23;;;;;;;4.70;3.20;;;9.20;99.90;;;;;;4980962;28;20429;-84
2023/03/29 07:19:52;;;;;;;4.37;3.73;;;9.20;99.90;;;;;;4980751;28;20456;-84
2023/03/29 07:22:40;;;;;;;4.53;3.40;;;9.20;99.90;;;;;;4993233;28;20442;-84
2023/03/29 07:25:08;;;;;;;3.53;3.00;;;9.20;99.90;;;;;;5007275;28;20433;-85
2023/03/29 07:27:39;;;;;;;5.27;3.13;;;9.20;99.90;;;;;;4991210;28;20470;-86
2023/03/29 07:30:09;;;;;;;5.50;3.40;;;9.20;99.90;;;;;;4980047;28;20471;-85
2023/03/29 07:32:43;;;;;;;5.03;3.93;;;9.20;99.90;;;;;;4996410;28;20425;-86
2023/03/29 07:35:35;;;;;;;3.57;3.13;;;9.20;99.90;;;;;;5012373;28;20433;-84
2023/03/29 07:38:01;;;;;;;4.50;3.53;;;9.20;99.90;;;;;;4980060;28;20448;-84
2023/03/29 07:40:28;;;;;;;3.70;3.23;;;9.20;99.90;;;;;;4996019;28;21154;-84
2023/03/29 07:42:57;;;;;;;7.20;3.57;;;9.20;99.90;;;;;;4996159;28;20461;-83
2023/03/29 07:45:29;;;;;;;4.43;3.13;;;9.20;99.90;;;;;;4996232;28;20432;-83
2023/03/29 07:48:07;;;;;;;4.30;3.23;;;9.20;99.90;;;;;;4995819;28;20457;-84
2023/03/29 07:50:47;;;;;;;6.07;3.43;;;9.20;99.90;;;;;;4996007;28;20503;-84
2023/03/29 07:53:14;;;;;;;4.60;3.67;;;9.20;99.90;;;;;;4992507;28;20790;-84
2023/03/29 07:55:45;;;;;;;5.13;3.00;;;9.20;99.90;;;;;;4986723;28;20785;-84
2023/03/29 07:58:34;;;;;;;4.90;3.03;;;9.20;99.90;;;;;;4996609;28;20471;-85
2023/03/29 08:01:03;;;;;;;3.57;3.20;;;9.20;99.90;;;;;;4995537;28;20782;-84
2023/03/29 08:03:51;;;;;;;4.30;3.47;;;9.20;99.90;;;;;;4995366;28;20433;-84
2023/03/29 08:06:22;;;;;;;4.70;3.10;;;9.20;99.90;;;;;;5011714;28;20442;-84
2023/03/29 08:08:50;;;;;;;4.80;3.30;;;9.20;99.90;;;;;;4979230;28;20453;-83
2023/03/29 08:11:19;;;;;;;4.87;3.50;;;9.20;99.90;;;;;;4979646;28;20441;-83
2023/03/29 08:13:57;;;;;;;3.43;3.03;;;9.20;99.90;;;;;;4979560;28;20912;-85
2023/03/29 08:17:05;;;;;;;4.30;2.80;;;9.20;99.90;;;;;;4976835;28;20467;-85
2023/03/29 08:19:35;;;;;;;4.03;3.07;;;9.20;99.90;;;;;;4995418;28;20467;-85
2023/03/29 08:22:05;;;;;;;4.00;2.93;;;9.20;99.90;;;;;;4995493;28;20421;-85
2023/03/29 08:24:54;;;;;;;4.90;2.93;;;9.20;99.90;;;;;;4995464;28;20436;-86
2023/03/29 08:27:25;;;;;;;3.47;3.17;;;9.20;99.90;;;;;;4979617;28;20539;-87
2023/03/29 08:30:19;;;;;;;3.40;3.10;;;9.20;99.90;;;;;;4979182;28;20465;-85
2023/03/29 08:32:50;;;;;;;4.97;3.00;;;9.20;99.90;;;;;;4991556;28;20427;-85
2023/03/29 08:35:19;;;;;;;4.87;3.10;;;9.20;99.90;;;;;;5006678;28;20510;-86
2023/03/29 08:38:05;;;;;;;3.03;2.67;;;9.20;99.90;;;;;;4994812;28;20437;-87
2023/03/29 08:40:33;;;;;;;3.93;3.03;;;9.20;99.90;;;;;;5011450;28;20429;-87
2023/03/29 08:43:30;;;;;;;3.60;3.30;;;9.20;99.90;;;;;;4996267;28;20421;-86
2023/03/29 08:46:47;;;;;;;8.00;3.27;;;9.30;99.90;;;;;;5006011;28;20432;-86
2023/03/29 08:49:37;;;;;;;3.60;3.30;;;9.30;99.90;;;;;;4994640;28;20467;-85
2023/03/29 08:52:38;;;;;;;5.57;2.93;;;9.30;99.90;;;;;;5011035;28;20793;-86
2023/03/29 08:55:40;;;;;;;4.83;2.97;;;9.30;99.90;;;;;;4978446;28;20465;-87
2023/03/29 08:58:42;;;;;;;4.27;3.00;;;9.20;99.90;;;;;;4953242;28;20524;-86
2023/03/29 09:01:10;;;;;;;5.70;3.40;;;9.20;99.90;;;;;;4978846;28;20511;-85
2023/03/29 09:04:03;;;;;;;4.30;3.23;;;9.20;99.90;;;;;;4995204;28;20425;-86
2023/03/29 09:06:43;;;;;;;5.03;3.33;;;9.20;99.90;;;;;;5010778;28;20425;-86
2023/03/29 09:09:21;;;;;;;4.30;2.87;;;9.30;99.90;;;;;;4994734;28;20786;-86
2023/03/29 09:12:03;;;;;;;6.17;3.90;;;9.30;99.90;;;;;;4994732;28;20516;-85
2023/03/29 09:14:52;;;;;;;6.03;2.93;;;9.30;99.90;;;;;;4994094;28;20510;-85
2023/03/29 09:17:37;;;;;;;3.53;3.20;;;9.30;99.90;;;;;;4994794;28;20487;-84
2023/03/29 09:20:53;;;;;;;4.87;2.90;;;9.30;99.90;;;;;;5010792;28;20425;-87
2023/03/29 09:23:45;;;;;;;4.60;3.50;;;9.30;99.90;;;;;;4981396;28;20780;-85
2023/03/29 09:26:53;;;;;;;5.43;3.20;;;9.30;99.90;;;;;;5010595;28;20429;-87
2023/03/29 09:29:36;;;;;;;5.67;3.10;;;9.30;99.90;;;;;;4994521;28;20538;-85
2023/03/29 09:32:12;;;;;;;4.10;3.30;;;9.30;99.90;;;;;;4995500;28;20425;-85
2023/03/29 09:34:57;;;;;;;3.77;3.30;;;9.30;99.90;;;;;;4978595;28;20480;-85
2023/03/29 09:37:35;;;;;;;5.23;3.17;;;9.40;99.90;;;;;;5010509;28;20707;-86
2023/03/29 09:40:10;;;;;;;4.77;3.20;;;9.40;99.90;;;;;;4994233;28;20524;-88
2023/03/29 09:42:56;;;;;;;12.70;3.53;;;9.40;99.90;;;;;;4978639;28;20507;-86
2023/03/29 09:45:24;;;;;;;3.40;2.90;;;9.40;99.90;;;;;;5010904;28;20436;-86
2023/03/29 09:48:01;;;;;;;7.13;3.20;;;9.40;99.90;;;;;;4978018;28;20453;-86
2023/03/29 09:50:35;;;;;;;4.90;3.60;;;9.50;99.90;;;;;;5010190;28;20614;-86
2023/03/29 09:53:04;;;;;;;5.23;3.40;;;9.40;99.90;;;;;;4978295;28;20420;-86
2023/03/29 09:55:35;;;;;;;4.67;3.10;;;9.50;99.90;;;;;;5009880;28;20437;-85
2023/03/29 09:58:22;;;;;;;3.40;2.90;;;9.50;99.90;;;;;;5003883;28;20782;-85
2023/03/29 10:00:53;;;;;;;6.00;3.33;;;9.50;99.90;;;;;;4993803;28;20436;-86
2023/03/29 10:03:24;;;;;;;5.43;3.27;;;9.50;99.90;;;;;;4994131;28;20560;-83
2023/03/29 10:06:05;;;;;;;9.80;3.40;;;9.50;99.90;;;;;;4977997;28;20434;-86
2023/03/29 10:08:49;;;;;;;4.70;3.33;;;9.60;99.90;;;;;;4993979;28;20456;-86
2023/03/29 10:11:30;;;;;;;4.67;2.97;;;9.60;99.90;;;;;;4994064;28;20390;-85
2023/03/29 10:14:06;;;;;;;3.97;3.10;;;9.60;99.90;;;;;;4994854;28;20733;-86
2023/03/29 10:16:40;;;;;;;7.20;3.67;;;9.60;99.90;;;;;;4977284;28;20890;-86
2023/03/29 10:19:19;;;;;;;3.80;3.37;;;9.60;99.90;;;;;;4994761;28;20421;-84
2023/03/29 10:21:48;;;;;;;4.93;3.07;;;9.70;99.90;;;;;;4994493;28;20433;-86
2023/03/29 10:24:24;;;;;;;4.57;3.30;;;9.70;99.90;;;;;;4977794;28;20543;-84
2023/03/29 10:26:55;;;;;;;6.00;4.17;;;9.70;99.90;;;;;;4994612;28;20823;-84
2023/03/29 10:29:27;;;;;;;5.63;3.67;;;9.70;99.90;;;;;;4993779;28;20548;-85
2023/03/29 10:31:55;;;;;;;5.20;3.60;;;9.80;99.90;;;;;;4993495;28;20520;-86
2023/03/29 10:34:26;;;;;;;5.67;3.87;;;9.80;99.90;;;;;;4993903;28;20418;-86
2023/03/29 10:37:02;;;;;;;4.70;3.40;;;9.80;99.90;;;;;;4994889;28;20405;-87
2023/03/29 10:39:32;;;;;;;5.40;3.57;;;9.80;99.90;;;;;;5009820;28;20421;-85
2023/03/29 10:42:03;;;;;;;9.80;4.00;;;9.90;99.90;;;;;;4993568;28;20592;-85
2023/03/29 10:44:35;;;;;;;4.10;3.70;;;9.90;99.90;;;;;;4993575;28;20464;-84
2023/03/29 10:47:33;;;;;;;4.43;2.97;;;9.90;99.90;;;;;;4995207;28;20472;-85
2023/03/29 10:50:00;;;;;;;7.87;4.30;;;10.00;99.90;;;;;;4998068;28;20808;-85
2023/03/29 10:52:29;;;;;;;4.67;3.33;;;10.00;99.90;;;;;;4980722;28;20507;-85
2023/03/29 10:54:57;;;;;;;4.30;3.47;;;10.00;99.90;;;;;;4997839;28;20459;-86
2023/03/29 10:58:16;;;;;;;5.20;2.90;;;10.00;99.90;;;;;;5013174;28;20441;-86
2023/03/29 11:00:58;;;;;;;5.30;3.80;;;10.10;99.90;;;;;;5011589;28;20779;-85
2023/03/29 11:03:55;;;;;;;3.60;3.07;;;10.10;99.90;;;;;;4996719;28;20713;-86
2023/03/29 11:06:51;;;;;;;4.63;3.30;;;10.10;99.90;;;;;;4996773;28;20911;-85
2023/03/29 11:09:51;;;;;;;10.50;3.83;;;10.20;99.90;;;;;;4996592;28;20563;-83
2023/03/29 11:13:01;;;;;;;7.10;3.47;;;10.20;99.90;;;;;;4996749;28;20408;-85
2023/03/29 11:20:33;;;;;;;5.83;3.80;;;10.30;99.90;;;;;;4997559;28;20502;-86
2023/03/29 11:23:13;;;;;;;5.90;3.53;;;10.30;99.90;;;;;;4979671;28;20436;-86
2023/03/29 11:26:17;;;;;;;7.23;4.57;;;10.30;99.90;;;;;;4996731;28;20438;-84
2023/03/29 11:29:13;;;;;;;6.17;3.63;;;10.40;99.90;;;;;;4996563;28;20513;-85
2023/03/29 11:32:03;;;;;;;6.93;3.83;;;10.40;99.90;;;;;;4997311;28;20803;-87
2023/03/29 11:34:32;;;;;;;5.20;3.80;;;10.40;99.90;;;;;;4997240;28;20451;-83
2023/03/29 11:37:02;;;;;;;4.47;3.43;;;10.40;99.90;;;;;;4996525;28;20921;-83
2023/03/29 11:39:46;;;;;;;5.07;3.60;;;10.50;99.90;;;;;;4996807;28;20516;-84
2023/03/29 11:42:31;;;;;;;6.30;4.20;;;10.50;99.90;;;;;;4997162;28;20734;-83
2023/03/29 11:45:03;;;;;;;7.77;3.73;;;10.50;99.90;;;;;;5012354;28;20472;-83
2023/03/29 11:47:37;;;;;;;6.20;3.47;;;10.50;99.90;;;;;;5013172;28;20543;-84
2023/03/29 11:50:18;;;;;;;3.83;3.40;;;10.50;99.90;;;;;;4996886;28;20588;-84
2023/03/29 11:53:00;;;;;;;3.53;3.20;;;10.60;99.90;;;;;;4996109;28;20433;-85
2023/03/29 11:55:33;;;;;;;5.60;3.60;;;10.60;99.90;;;;;;4996499;28;20645;-84
2023/03/29 11:58:03;;;;;;;9.70;3.50;;;10.60;99.90;;;;;;4986352;28;20437;-84
2023/03/29 12:00:31;;;;;;;4.30;3.23;;;10.60;99.90;;;;;;4976689;28;20430;-83
2023/03/29 12:03:09;;;;;;;3.10;2.80;;;10.70;99.90;;;;;;4992517;28;20437;-83
2023/03/29 12:05:49;;;;;;;3.70;3.10;;;10.70;99.90;;;;;;4977209;28;20470;-85
2023/03/29 12:08:27;;;;;;;3.40;2.73;;;10.70;99.90;;;;;;4977045;28;20476;-83
2023/03/29 12:11:06;;;;;;;3.83;2.97;;;10.70;99.90;;;;;;4977014;28;20520;-85
2023/03/29 12:13:46;;;;;;;5.87;3.07;;;10.80;99.90;;;;;;4977027;28;20411;-83
2023/03/29 12:16:18;;;;;;;3.90;2.37;;;10.80;99.90;;;;;;4976341;28;20443;-83
2023/03/29 12:18:52;;;;;;;8.93;3.73;;;10.80;99.90;;;;;;4992214;28;20392;-85
2023/03/29 12:21:25;;;;;;;5.30;3.20;;;10.90;99.90;;;;;;4992082;28;20932;-85
2023/03/29 12:23:53;;;;;;;4.37;3.40;;;10.90;99.90;;;;;;4992423;28;20743;-83
2023/03/29 12:26:43;;;;;;;5.03;3.40;;;10.90;99.90;;;;;;4982054;28;20440;-83
2023/03/29 12:29:15;;;;;;;4.20;2.93;;;11.00;99.90;;;;;;4975703;28;20802;-85
2023/03/29 12:31:46;;;;;;;2.93;2.40;;;11.00;99.90;;;;;;4991915;28;20858;-84
2023/03/29 12:34:35;;;;;;;4.63;2.90;;;11.00;99.90;;;;;;4991861;28;20478;-85
2023/03/29 12:37:37;;;;;;;7.97;2.93;;;11.00;99.90;;;;;;4989636;28;20854;-83
2023/03/29 12:40:35;;;;;;;4.63;2.57;;;11.10;99.90;;;;;;4999743;28;20433;-83
2023/03/29 12:43:31;;;;;;;8.00;3.03;;;11.10;99.90;;;;;;4995720;28;20418;-83
2023/03/29 12:46:25;;;;;;;4.20;3.00;;;11.10;99.90;;;;;;4978717;28;20902;-84
2023/03/29 12:49:04;;;;;;;5.93;3.10;;;11.20;99.90;;;;;;5011125;28;20440;-85
2023/03/29 12:51:32;;;;;;;6.03;2.97;;;11.20;99.90;;;;;;4994611;28;20831;-85
2023/03/29 12:54:12;;;;;;;3.93;2.73;;;11.20;99.90;;;;;;4994948;28;20513;-85
2023/03/29 12:56:59;;;;;;;3.97;2.67;;;11.30;99.90;;;;;;4995743;28;20765;-85
2023/03/29 12:59:43;;;;;;;3.67;2.87;;;11.30;99.90;;;;;;4976255;28;20506;-85
2023/03/29 13:02:13;;;;;;;5.23;3.03;;;11.30;99.90;;;;;;4991433;28;20458;-86
2023/03/29 13:04:42;;;;;;;5.27;2.80;;;11.40;99.90;;;;;;4991461;28;20436;-83
2023/03/29 13:07:25;;;;;;;4.33;2.93;;;11.40;99.90;;;;;;4980175;28;20448;-85
2023/03/29 13:09:53;;;;;;;4.67;3.10;;;11.40;99.90;;;;;;4993983;28;20950;-84
2023/03/29 13:12:41;;;;;;;4.50;2.67;;;11.50;99.90;;;;;;4995061;28;20439;-85
2023/03/29 13:15:14;;;;;;;2.73;2.47;;;11.50;99.90;;;;;;4995908;28;20442;-85
2023/03/29 13:18:06;;;;;;;4.00;2.70;;;11.50;99.90;;;;;;4995709;28;20437;-85
2023/03/29 13:20:45;;;;;;;3.33;2.70;;;11.50;99.90;;;;;;4994687;28;20889;-85
2023/03/29 13:23:21;;;;;;;3.37;2.80;;;11.60;99.90;;;;;;4994728;28;20462;-87
2023/03/29 13:26:00;;;;;;;5.03;2.57;;;11.60;99.90;;;;;;4995442;28;20479;-86
2023/03/29 13:28:55;;;;;;;7.37;3.70;;;11.60;99.90;;;;;;4975210;28;20866;-86
2023/03/29 13:31:43;;;;;;;4.00;2.60;;;11.70;99.90;;;;;;4975359;28;20442;-85
2023/03/29 13:34:31;;;;;;;4.40;3.00;;;11.70;99.90;;;;;;4976198;28;20395;-85
2023/03/29 13:37:09;;;;;;;4.33;3.30;;;11.70;99.90;;;;;;4976458;28;20484;-85
2023/03/29 13:39:36;;;;;;;6.10;3.30;;;11.80;99.90;;;;;;4991374;28;20450;-83
2023/03/29 13:42:34;;;;;;;4.97;2.70;;;11.80;99.90;;;;;;4990931;28;20445;-85
2023/03/29 13:45:13;;;;;;;3.50;2.80;;;11.80;99.90;;;;;;4974695;28;20415;-86
2023/03/29 13:47:42;;;;;;;3.67;2.63;;;11.80;99.90;;;;;;4974709;28;20431;-84
2023/03/29 13:50:16;;;;;;;5.70;2.80;;;11.90;99.90;;;;;;4975596;28;20489;-83